Terminal Aerodrome Forecast
Issued by NWS

Home | Current Version | Previous Version | Text Only | Print | Product List | Glossary On
Versions: 1 2 3 4 5 6 7 8 9 10 11 12 13 14 15 16 17 18 19 20 21 22 23
877
FTUS41 KPBZ 140606 AAA
TAFZZV
TAF AMD
KZZV 140606Z 1406/1506 27012G22KT P6SM -RASN OVC015
      TEMPO 1406/1408 27015G35KT
     FM141000 30012G18KT P6SM BKN015
     FM142000 30008KT P6SM BKN025=

USA.gov is the U.S. government's official web portal to all federal, state and local government web resources and services.